sensor_id;sensor_type;location;lat;lon;timestamp;P1;durP1;ratioP1;P2;durP2;ratioP2
37451;SDS011;23314;51.114;6.900;2024-03-17T00:02:20;9.90;;;8.00;;
37451;SDS011;23314;51.114;6.900;2024-03-17T00:04:46;12.40;;;7.97;;
37451;SDS011;23314;51.114;6.900;2024-03-17T00:07:12;17.50;;;8.20;;
37451;SDS011;23314;51.114;6.900;2024-03-17T00:09:38;11.40;;;7.30;;
37451;SDS011;23314;51.114;6.900;2024-03-17T00:12:05;13.53;;;8.33;;
37451;SDS011;23314;51.114;6.900;2024-03-17T00:14:31;15.27;;;9.17;;
37451;SDS011;23314;51.114;6.900;2024-03-17T00:16:56;17.63;;;9.57;;
37451;SDS011;23314;51.114;6.900;2024-03-17T00:19:25;16.07;;;9.40;;
37451;SDS011;23314;51.114;6.900;2024-03-17T00:21:51;13.80;;;9.23;;
37451;SDS011;23314;51.114;6.900;2024-03-17T00:24:16;16.40;;;9.10;;
37451;SDS011;23314;51.114;6.900;2024-03-17T00:26:42;10.83;;;7.70;;
37451;SDS011;23314;51.114;6.900;2024-03-17T00:29:07;12.97;;;8.23;;
37451;SDS011;23314;51.114;6.900;2024-03-17T00:31:33;13.93;;;8.10;;
37451;SDS011;23314;51.114;6.900;2024-03-17T00:33:58;14.87;;;7.87;;
37451;SDS011;23314;51.114;6.900;2024-03-17T00:36:23;15.27;;;7.70;;
37451;SDS011;23314;51.114;6.900;2024-03-17T00:38:49;12.07;;;7.40;;
37451;SDS011;23314;51.114;6.900;2024-03-17T00:41:16;12.60;;;7.53;;
37451;SDS011;23314;51.114;6.900;2024-03-17T00:43:42;11.33;;;7.47;;
37451;SDS011;23314;51.114;6.900;2024-03-17T00:46:07;9.67;;;7.60;;
37451;SDS011;23314;51.114;6.900;2024-03-17T00:48:32;14.73;;;7.83;;
37451;SDS011;23314;51.114;6.900;2024-03-17T00:50:58;10.83;;;7.67;;
37451;SDS011;23314;51.114;6.900;2024-03-17T00:53:24;13.53;;;8.23;;
37451;SDS011;23314;51.114;6.900;2024-03-17T00:55:53;15.23;;;7.80;;
37451;SDS011;23314;51.114;6.900;2024-03-17T00:58:21;11.27;;;7.30;;
37451;SDS011;23314;51.114;6.900;2024-03-17T01:00:47;15.07;;;7.57;;
37451;SDS011;23314;51.114;6.900;2024-03-17T01:03:13;9.77;;;6.93;;
37451;SDS011;23314;51.114;6.900;2024-03-17T01:05:39;9.23;;;6.67;;
37451;SDS011;23314;51.114;6.900;2024-03-17T01:08:09;12.97;;;7.50;;
37451;SDS011;23314;51.114;6.900;2024-03-17T01:10:39;16.17;;;7.13;;
37451;SDS011;23314;51.114;6.900;2024-03-17T01:13:08;11.80;;;7.30;;
37451;SDS011;23314;51.114;6.900;2024-03-17T01:15:38;13.30;;;7.43;;
37451;SDS011;23314;51.114;6.900;2024-03-17T01:18:04;13.57;;;7.73;;
37451;SDS011;23314;51.114;6.900;2024-03-17T01:20:31;13.17;;;7.70;;
37451;SDS011;23314;51.114;6.900;2024-03-17T01:22:57;9.37;;;7.00;;
37451;SDS011;23314;51.114;6.900;2024-03-17T01:25:22;14.50;;;7.43;;
37451;SDS011;23314;51.114;6.900;2024-03-17T01:27:48;12.43;;;7.33;;
37451;SDS011;23314;51.114;6.900;2024-03-17T01:30:13;11.80;;;7.63;;
37451;SDS011;23314;51.114;6.900;2024-03-17T01:32:39;12.03;;;7.50;;
37451;SDS011;23314;51.114;6.900;2024-03-17T01:35:04;11.00;;;7.60;;
37451;SDS011;23314;51.114;6.900;2024-03-17T01:37:31;14.70;;;8.03;;
37451;SDS011;23314;51.114;6.900;2024-03-17T01:39:57;13.23;;;8.23;;
37451;SDS011;23314;51.114;6.900;2024-03-17T01:42:23;11.13;;;8.13;;
37451;SDS011;23314;51.114;6.900;2024-03-17T01:44:48;11.57;;;7.70;;
37451;SDS011;23314;51.114;6.900;2024-03-17T01:47:15;11.83;;;7.90;;
37451;SDS011;23314;51.114;6.900;2024-03-17T01:49:41;17.50;;;8.20;;
37451;SDS011;23314;51.114;6.900;2024-03-17T01:52:07;12.40;;;8.67;;
37451;SDS011;23314;51.114;6.900;2024-03-17T01:54:32;14.33;;;8.50;;
37451;SDS011;23314;51.114;6.900;2024-03-17T01:56:57;14.10;;;9.37;;
37451;SDS011;23314;51.114;6.900;2024-03-17T01:59:23;16.60;;;9.43;;
37451;SDS011;23314;51.114;6.900;2024-03-17T02:01:48;13.90;;;9.00;;
37451;SDS011;23314;51.114;6.900;2024-03-17T02:04:14;15.27;;;8.50;;
37451;SDS011;23314;51.114;6.900;2024-03-17T02:06:39;12.57;;;9.17;;
37451;SDS011;23314;51.114;6.900;2024-03-17T02:09:04;16.83;;;9.63;;
37451;SDS011;23314;51.114;6.900;2024-03-17T02:11:31;11.40;;;8.97;;
37451;SDS011;23314;51.114;6.900;2024-03-17T02:13:57;13.60;;;9.33;;
37451;SDS011;23314;51.114;6.900;2024-03-17T02:16:24;13.53;;;9.00;;
37451;SDS011;23314;51.114;6.900;2024-03-17T02:18:53;15.10;;;9.00;;
37451;SDS011;23314;51.114;6.900;2024-03-17T02:21:20;20.00;;;9.73;;
37451;SDS011;23314;51.114;6.900;2024-03-17T02:23:47;15.73;;;9.47;;
37451;SDS011;23314;51.114;6.900;2024-03-17T02:26:13;16.87;;;10.03;;
37451;SDS011;23314;51.114;6.900;2024-03-17T02:28:41;13.20;;;9.90;;
37451;SDS011;23314;51.114;6.900;2024-03-17T02:31:08;18.53;;;9.90;;
37451;SDS011;23314;51.114;6.900;2024-03-17T02:33:35;15.80;;;9.50;;
37451;SDS011;23314;51.114;6.900;2024-03-17T02:36:01;20.30;;;10.10;;
37451;SDS011;23314;51.114;6.900;2024-03-17T02:41:54;12.57;;;9.30;;
37451;SDS011;23314;51.114;6.900;2024-03-17T02:44:19;13.93;;;9.43;;
37451;SDS011;23314;51.114;6.900;2024-03-17T02:46:44;17.07;;;10.07;;
37451;SDS011;23314;51.114;6.900;2024-03-17T02:49:09;15.33;;;10.33;;
37451;SDS011;23314;51.114;6.900;2024-03-17T02:51:39;15.40;;;11.00;;
37451;SDS011;23314;51.114;6.900;2024-03-17T02:54:04;15.90;;;10.63;;
37451;SDS011;23314;51.114;6.900;2024-03-17T02:56:31;15.43;;;10.70;;
37451;SDS011;23314;51.114;6.900;2024-03-17T02:58:56;15.57;;;10.77;;
37451;SDS011;23314;51.114;6.900;2024-03-17T03:01:22;16.03;;;11.27;;
37451;SDS011;23314;51.114;6.900;2024-03-17T03:03:47;19.93;;;11.20;;
37451;SDS011;23314;51.114;6.900;2024-03-17T03:06:13;18.20;;;11.03;;
37451;SDS011;23314;51.114;6.900;2024-03-17T03:08:39;14.77;;;11.43;;
37451;SDS011;23314;51.114;6.900;2024-03-17T03:11:06;16.20;;;11.33;;
37451;SDS011;23314;51.114;6.900;2024-03-17T03:13:36;17.80;;;12.67;;
37451;SDS011;23314;51.114;6.900;2024-03-17T03:16:08;24.23;;;11.93;;
37451;SDS011;23314;51.114;6.900;2024-03-17T03:18:35;20.87;;;11.97;;
37451;SDS011;23314;51.114;6.900;2024-03-17T03:21:01;19.70;;;12.53;;
37451;SDS011;23314;51.114;6.900;2024-03-17T03:23:27;18.57;;;12.30;;
37451;SDS011;23314;51.114;6.900;2024-03-17T03:25:55;20.57;;;12.30;;
37451;SDS011;23314;51.114;6.900;2024-03-17T03:28:24;17.50;;;11.97;;
37451;SDS011;23314;51.114;6.900;2024-03-17T03:30:51;19.63;;;12.90;;
37451;SDS011;23314;51.114;6.900;2024-03-17T03:33:17;23.00;;;12.63;;
37451;SDS011;23314;51.114;6.900;2024-03-17T03:35:43;21.77;;;12.97;;
37451;SDS011;23314;51.114;6.900;2024-03-17T03:38:08;21.70;;;12.83;;
37451;SDS011;23314;51.114;6.900;2024-03-17T03:40:34;23.97;;;13.97;;
37451;SDS011;23314;51.114;6.900;2024-03-17T03:42:59;18.87;;;13.47;;
37451;SDS011;23314;51.114;6.900;2024-03-17T03:45:24;23.43;;;13.57;;
37451;SDS011;23314;51.114;6.900;2024-03-17T03:47:50;17.63;;;13.90;;
37451;SDS011;23314;51.114;6.900;2024-03-17T03:50:18;21.33;;;14.70;;
37451;SDS011;23314;51.114;6.900;2024-03-17T03:52:46;16.73;;;12.80;;
37451;SDS011;23314;51.114;6.900;2024-03-17T03:55:11;23.00;;;14.07;;
37451;SDS011;23314;51.114;6.900;2024-03-17T03:57:44;26.60;;;14.47;;
37451;SDS011;23314;51.114;6.900;2024-03-17T04:00:17;18.37;;;13.57;;
37451;SDS011;23314;51.114;6.900;2024-03-17T04:02:50;22.67;;;14.67;;
37451;SDS011;23314;51.114;6.900;2024-03-17T04:05:17;25.27;;;14.70;;
37451;SDS011;23314;51.114;6.900;2024-03-17T04:07:43;21.60;;;14.37;;
37451;SDS011;23314;51.114;6.900;2024-03-17T04:10:11;20.47;;;13.80;;
37451;SDS011;23314;51.114;6.900;2024-03-17T04:12:37;19.73;;;14.13;;
37451;SDS011;23314;51.114;6.900;2024-03-17T04:15:03;24.57;;;14.57;;
37451;SDS011;23314;51.114;6.900;2024-03-17T04:17:31;21.97;;;13.50;;
37451;SDS011;23314;51.114;6.900;2024-03-17T04:19:57;24.10;;;13.90;;
37451;SDS011;23314;51.114;6.900;2024-03-17T04:22:23;22.70;;;14.10;;
37451;SDS011;23314;51.114;6.900;2024-03-17T04:24:49;24.60;;;14.57;;
37451;SDS011;23314;51.114;6.900;2024-03-17T04:27:19;25.37;;;13.63;;
37451;SDS011;23314;51.114;6.900;2024-03-17T04:29:48;21.67;;;12.83;;
37451;SDS011;23314;51.114;6.900;2024-03-17T04:32:14;20.70;;;13.53;;
37451;SDS011;23314;51.114;6.900;2024-03-17T04:34:40;20.93;;;12.23;;
37451;SDS011;23314;51.114;6.900;2024-03-17T04:37:05;15.43;;;11.57;;
37451;SDS011;23314;51.114;6.900;2024-03-17T04:39:30;15.27;;;11.57;;
37451;SDS011;23314;51.114;6.900;2024-03-17T04:41:56;16.17;;;11.87;;
37451;SDS011;23314;51.114;6.900;2024-03-17T04:44:22;20.07;;;11.23;;
37451;SDS011;23314;51.114;6.900;2024-03-17T04:46:47;16.07;;;11.63;;
37451;SDS011;23314;51.114;6.900;2024-03-17T04:49:13;14.97;;;10.80;;
37451;SDS011;23314;51.114;6.900;2024-03-17T04:51:38;17.10;;;11.30;;
37451;SDS011;23314;51.114;6.900;2024-03-17T04:54:04;18.17;;;10.43;;
37451;SDS011;23314;51.114;6.900;2024-03-17T04:56:32;20.17;;;10.63;;
37451;SDS011;23314;51.114;6.900;2024-03-17T04:58:57;12.00;;;9.97;;
37451;SDS011;23314;51.114;6.900;2024-03-17T05:01:22;13.90;;;10.53;;
37451;SDS011;23314;51.114;6.900;2024-03-17T05:03:50;12.67;;;9.77;;
37451;SDS011;23314;51.114;6.900;2024-03-17T05:06:16;14.50;;;9.73;;
37451;SDS011;23314;51.114;6.900;2024-03-17T05:08:41;14.63;;;9.63;;
37451;SDS011;23314;51.114;6.900;2024-03-17T05:11:07;12.73;;;9.50;;
37451;SDS011;23314;51.114;6.900;2024-03-17T05:13:34;13.43;;;9.47;;
37451;SDS011;23314;51.114;6.900;2024-03-17T05:16:03;15.73;;;9.53;;
37451;SDS011;23314;51.114;6.900;2024-03-17T05:18:29;16.23;;;9.43;;
37451;SDS011;23314;51.114;6.900;2024-03-17T05:20:58;14.70;;;9.50;;
37451;SDS011;23314;51.114;6.900;2024-03-17T05:23:25;11.70;;;9.33;;
37451;SDS011;23314;51.114;6.900;2024-03-17T05:25:52;12.13;;;9.30;;
37451;SDS011;23314;51.114;6.900;2024-03-17T05:28:17;17.73;;;10.20;;
37451;SDS011;23314;51.114;6.900;2024-03-17T05:30:43;11.27;;;8.83;;
37451;SDS011;23314;51.114;6.900;2024-03-17T05:33:08;12.40;;;9.57;;
37451;SDS011;23314;51.114;6.900;2024-03-17T05:35:33;11.53;;;9.63;;
37451;SDS011;23314;51.114;6.900;2024-03-17T05:37:58;11.57;;;9.80;;
37451;SDS011;23314;51.114;6.900;2024-03-17T05:40:24;12.30;;;10.00;;
37451;SDS011;23314;51.114;6.900;2024-03-17T05:42:49;14.03;;;9.60;;
37451;SDS011;23314;51.114;6.900;2024-03-17T05:45:15;13.40;;;9.03;;
37451;SDS011;23314;51.114;6.900;2024-03-17T05:47:41;12.17;;;8.97;;
37451;SDS011;23314;51.114;6.900;2024-03-17T05:50:06;14.33;;;9.70;;
37451;SDS011;23314;51.114;6.900;2024-03-17T05:52:32;13.70;;;10.07;;
37451;SDS011;23314;51.114;6.900;2024-03-17T05:54:58;13.43;;;8.97;;
37451;SDS011;23314;51.114;6.900;2024-03-17T05:57:23;14.43;;;9.33;;
37451;SDS011;23314;51.114;6.900;2024-03-17T05:59:49;10.97;;;8.50;;
37451;SDS011;23314;51.114;6.900;2024-03-17T06:02:14;11.37;;;9.60;;
37451;SDS011;23314;51.114;6.900;2024-03-17T06:04:41;11.33;;;9.40;;
37451;SDS011;23314;51.114;6.900;2024-03-17T06:07:06;13.47;;;9.77;;
37451;SDS011;23314;51.114;6.900;2024-03-17T06:09:32;14.10;;;9.40;;
37451;SDS011;23314;51.114;6.900;2024-03-17T06:11:57;17.20;;;8.57;;
37451;SDS011;23314;51.114;6.900;2024-03-17T06:14:23;10.77;;;8.37;;
37451;SDS011;23314;51.114;6.900;2024-03-17T06:16:48;15.80;;;9.63;;
37451;SDS011;23314;51.114;6.900;2024-03-17T06:19:13;13.07;;;8.90;;
37451;SDS011;23314;51.114;6.900;2024-03-17T06:21:39;12.40;;;8.77;;
37451;SDS011;23314;51.114;6.900;2024-03-17T06:24:05;10.57;;;8.63;;
37451;SDS011;23314;51.114;6.900;2024-03-17T06:26:33;9.00;;;7.70;;
37451;SDS011;23314;51.114;6.900;2024-03-17T06:29:02;8.20;;;7.20;;
37451;SDS011;23314;51.114;6.900;2024-03-17T06:31:28;11.47;;;7.70;;
37451;SDS011;23314;51.114;6.900;2024-03-17T06:33:53;12.23;;;7.43;;
37451;SDS011;23314;51.114;6.900;2024-03-17T06:36:18;8.90;;;7.40;;
37451;SDS011;23314;51.114;6.900;2024-03-17T06:38:44;7.67;;;6.90;;
37451;SDS011;23314;51.114;6.900;2024-03-17T06:41:09;7.77;;;6.93;;
37451;SDS011;23314;51.114;6.900;2024-03-17T06:43:35;10.13;;;7.93;;
37451;SDS011;23314;51.114;6.900;2024-03-17T06:46:00;9.27;;;7.10;;
37451;SDS011;23314;51.114;6.900;2024-03-17T06:48:26;9.23;;;7.70;;
37451;SDS011;23314;51.114;6.900;2024-03-17T06:50:53;13.13;;;7.97;;
37451;SDS011;23314;51.114;6.900;2024-03-17T06:53:23;8.23;;;7.37;;
37451;SDS011;23314;51.114;6.900;2024-03-17T06:55:55;9.23;;;7.50;;
37451;SDS011;23314;51.114;6.900;2024-03-17T06:58:25;11.70;;;7.90;;
37451;SDS011;23314;51.114;6.900;2024-03-17T07:00:53;10.87;;;8.03;;
37451;SDS011;23314;51.114;6.900;2024-03-17T07:03:23;13.30;;;8.37;;
37451;SDS011;23314;51.114;6.900;2024-03-17T07:05:53;9.23;;;7.80;;
37451;SDS011;23314;51.114;6.900;2024-03-17T07:08:23;13.87;;;7.47;;
37451;SDS011;23314;51.114;6.900;2024-03-17T07:13:31;10.33;;;7.60;;
37451;SDS011;23314;51.114;6.900;2024-03-17T07:15:58;11.73;;;7.30;;
37451;SDS011;23314;51.114;6.900;2024-03-17T07:18:25;11.53;;;7.73;;
37451;SDS011;23314;51.114;6.900;2024-03-17T07:20:52;11.33;;;7.13;;
37451;SDS011;23314;51.114;6.900;2024-03-17T07:23:17;10.27;;;7.67;;
37451;SDS011;23314;51.114;6.900;2024-03-17T07:25:51;9.87;;;7.33;;
37451;SDS011;23314;51.114;6.900;2024-03-17T07:28:23;8.83;;;7.20;;
37451;SDS011;23314;51.114;6.900;2024-03-17T07:30:55;12.50;;;7.33;;
37451;SDS011;23314;51.114;6.900;2024-03-17T07:33:21;8.57;;;7.03;;
37451;SDS011;23314;51.114;6.900;2024-03-17T07:35:51;8.60;;;6.80;;
37451;SDS011;23314;51.114;6.900;2024-03-17T07:38:16;12.37;;;7.20;;
37451;SDS011;23314;51.114;6.900;2024-03-17T07:40:43;10.13;;;6.97;;
37451;SDS011;23314;51.114;6.900;2024-03-17T07:43:08;7.80;;;7.00;;
37451;SDS011;23314;51.114;6.900;2024-03-17T07:45:34;9.70;;;6.20;;
37451;SDS011;23314;51.114;6.900;2024-03-17T07:47:59;8.73;;;6.63;;
37451;SDS011;23314;51.114;6.900;2024-03-17T07:50:25;9.93;;;6.07;;
37451;SDS011;23314;51.114;6.900;2024-03-17T07:52:50;7.83;;;5.87;;
37451;SDS011;23314;51.114;6.900;2024-03-17T07:55:15;7.87;;;6.20;;
37451;SDS011;23314;51.114;6.900;2024-03-17T07:57:41;6.70;;;5.97;;
37451;SDS011;23314;51.114;6.900;2024-03-17T08:00:06;10.87;;;6.80;;
37451;SDS011;23314;51.114;6.900;2024-03-17T08:02:41;6.60;;;6.00;;
37451;SDS011;23314;51.114;6.900;2024-03-17T08:05:09;6.03;;;5.43;;
37451;SDS011;23314;51.114;6.900;2024-03-17T08:07:35;9.17;;;6.23;;
37451;SDS011;23314;51.114;6.900;2024-03-17T08:10:00;7.37;;;5.90;;
37451;SDS011;23314;51.114;6.900;2024-03-17T08:12:28;7.47;;;5.43;;
37451;SDS011;23314;51.114;6.900;2024-03-17T08:14:54;10.43;;;5.63;;
37451;SDS011;23314;51.114;6.900;2024-03-17T08:17:19;8.00;;;5.60;;
37451;SDS011;23314;51.114;6.900;2024-03-17T08:19:45;10.07;;;6.13;;
37451;SDS011;23314;51.114;6.900;2024-03-17T08:22:10;8.77;;;6.20;;
37451;SDS011;23314;51.114;6.900;2024-03-17T08:24:35;6.87;;;5.50;;
37451;SDS011;23314;51.114;6.900;2024-03-17T08:27:00;7.40;;;5.07;;
37451;SDS011;23314;51.114;6.900;2024-03-17T08:29:26;8.63;;;5.80;;
37451;SDS011;23314;51.114;6.900;2024-03-17T08:31:51;9.07;;;5.70;;
37451;SDS011;23314;51.114;6.900;2024-03-17T08:34:16;7.23;;;5.30;;
37451;SDS011;23314;51.114;6.900;2024-03-17T08:36:42;5.97;;;5.40;;
37451;SDS011;23314;51.114;6.900;2024-03-17T08:39:07;6.50;;;5.40;;
37451;SDS011;23314;51.114;6.900;2024-03-17T08:41:34;11.27;;;5.33;;
37451;SDS011;23314;51.114;6.900;2024-03-17T08:44:00;8.53;;;5.30;;
37451;SDS011;23314;51.114;6.900;2024-03-17T08:46:25;8.67;;;6.07;;
37451;SDS011;23314;51.114;6.900;2024-03-17T08:48:50;6.10;;;5.47;;
37451;SDS011;23314;51.114;6.900;2024-03-17T08:51:16;7.97;;;5.50;;
37451;SDS011;23314;51.114;6.900;2024-03-17T08:53:41;6.10;;;5.47;;
37451;SDS011;23314;51.114;6.900;2024-03-17T08:56:07;9.93;;;6.83;;
37451;SDS011;23314;51.114;6.900;2024-03-17T08:58:32;6.70;;;6.03;;
37451;SDS011;23314;51.114;6.900;2024-03-17T09:00:57;10.33;;;6.13;;
37451;SDS011;23314;51.114;6.900;2024-03-17T09:03:23;6.17;;;5.20;;
37451;SDS011;23314;51.114;6.900;2024-03-17T09:05:49;8.63;;;5.63;;
37451;SDS011;23314;51.114;6.900;2024-03-17T09:08:16;7.30;;;5.30;;
37451;SDS011;23314;51.114;6.900;2024-03-17T09:10:44;5.43;;;4.93;;
37451;SDS011;23314;51.114;6.900;2024-03-17T09:13:12;6.23;;;4.60;;
37451;SDS011;23314;51.114;6.900;2024-03-17T09:15:40;6.20;;;4.70;;
37451;SDS011;23314;51.114;6.900;2024-03-17T09:18:05;4.60;;;4.17;;
37451;SDS011;23314;51.114;6.900;2024-03-17T09:20:31;6.50;;;4.27;;
37451;SDS011;23314;51.114;6.900;2024-03-17T09:22:56;6.37;;;4.13;;
37451;SDS011;23314;51.114;6.900;2024-03-17T09:25:21;7.30;;;4.20;;
37451;SDS011;23314;51.114;6.900;2024-03-17T09:27:47;4.07;;;3.67;;
37451;SDS011;23314;51.114;6.900;2024-03-17T09:30:12;4.40;;;4.00;;
37451;SDS011;23314;51.114;6.900;2024-03-17T09:32:38;4.60;;;4.20;;
37451;SDS011;23314;51.114;6.900;2024-03-17T09:35:04;4.00;;;3.60;;
37451;SDS011;23314;51.114;6.900;2024-03-17T09:37:30;4.73;;;4.23;;
37451;SDS011;23314;51.114;6.900;2024-03-17T09:39:57;5.00;;;3.90;;
37451;SDS011;23314;51.114;6.900;2024-03-17T09:42:23;6.47;;;3.60;;
37451;SDS011;23314;51.114;6.900;2024-03-17T09:44:49;8.13;;;3.93;;
37451;SDS011;23314;51.114;6.900;2024-03-17T09:47:20;6.83;;;3.73;;
37451;SDS011;23314;51.114;6.900;2024-03-17T09:49:47;3.53;;;3.23;;
37451;SDS011;23314;51.114;6.900;2024-03-17T09:52:20;5.00;;;3.80;;
37451;SDS011;23314;51.114;6.900;2024-03-17T09:54:49;3.60;;;3.23;;
37451;SDS011;23314;51.114;6.900;2024-03-17T09:57:18;5.10;;;3.87;;
37451;SDS011;23314;51.114;6.900;2024-03-17T09:59:49;4.13;;;3.20;;
37451;SDS011;23314;51.114;6.900;2024-03-17T10:02:16;4.43;;;3.60;;
37451;SDS011;23314;51.114;6.900;2024-03-17T10:04:43;3.63;;;3.20;;
37451;SDS011;23314;51.114;6.900;2024-03-17T10:07:08;4.73;;;4.23;;
37451;SDS011;23314;51.114;6.900;2024-03-17T10:09:34;4.23;;;3.67;;
37451;SDS011;23314;51.114;6.900;2024-03-17T10:11:59;6.17;;;3.77;;
37451;SDS011;23314;51.114;6.900;2024-03-17T10:14:24;4.50;;;3.57;;
37451;SDS011;23314;51.114;6.900;2024-03-17T10:16:50;4.60;;;3.70;;
37451;SDS011;23314;51.114;6.900;2024-03-17T10:19:22;3.87;;;3.07;;
37451;SDS011;23314;51.114;6.900;2024-03-17T10:21:58;5.60;;;3.60;;
37451;SDS011;23314;51.114;6.900;2024-03-17T10:24:26;4.67;;;3.70;;
37451;SDS011;23314;51.114;6.900;2024-03-17T10:26:57;7.27;;;4.20;;
37451;SDS011;23314;51.114;6.900;2024-03-17T10:29:33;4.57;;;3.73;;
37451;SDS011;23314;51.114;6.900;2024-03-17T10:32:03;3.93;;;3.50;;
37451;SDS011;23314;51.114;6.900;2024-03-17T10:34:39;4.60;;;3.93;;
37451;SDS011;23314;51.114;6.900;2024-03-17T10:37:14;4.93;;;3.63;;
37451;SDS011;23314;51.114;6.900;2024-03-17T10:39:41;3.80;;;3.47;;
37451;SDS011;23314;51.114;6.900;2024-03-17T10:42:08;4.20;;;3.70;;
37451;SDS011;23314;51.114;6.900;2024-03-17T10:44:35;5.23;;;3.73;;
37451;SDS011;23314;51.114;6.900;2024-03-17T10:47:02;4.63;;;3.67;;
37451;SDS011;23314;51.114;6.900;2024-03-17T10:49:34;6.13;;;3.77;;
37451;SDS011;23314;51.114;6.900;2024-03-17T10:52:01;4.80;;;3.23;;
37451;SDS011;23314;51.114;6.900;2024-03-17T10:54:29;4.37;;;3.20;;
37451;SDS011;23314;51.114;6.900;2024-03-17T10:56:57;4.20;;;3.50;;
37451;SDS011;23314;51.114;6.900;2024-03-17T10:59:38;3.90;;;3.20;;
37451;SDS011;23314;51.114;6.900;2024-03-17T11:02:27;4.53;;;3.10;;
37451;SDS011;23314;51.114;6.900;2024-03-17T11:05:00;6.00;;;3.30;;
37451;SDS011;23314;51.114;6.900;2024-03-17T11:07:48;4.50;;;3.50;;
37451;SDS011;23314;51.114;6.900;2024-03-17T11:10:22;4.03;;;3.63;;
37451;SDS011;23314;51.114;6.900;2024-03-17T11:12:53;4.37;;;3.97;;
37451;SDS011;23314;51.114;6.900;2024-03-17T11:20:34;4.50;;;3.63;;
37451;SDS011;23314;51.114;6.900;2024-03-17T11:23:02;5.67;;;3.67;;
37451;SDS011;23314;51.114;6.900;2024-03-17T11:38:56;5.13;;;3.90;;
37451;SDS011;23314;51.114;6.900;2024-03-17T11:46:43;4.93;;;3.70;;
37451;SDS011;23314;51.114;6.900;2024-03-17T11:52:13;6.83;;;4.33;;
37451;SDS011;23314;51.114;6.900;2024-03-17T11:54:43;5.37;;;4.27;;
37451;SDS011;23314;51.114;6.900;2024-03-17T11:57:13;5.57;;;3.73;;
37451;SDS011;23314;51.114;6.900;2024-03-17T11:59:44;4.83;;;3.93;;
37451;SDS011;23314;51.114;6.900;2024-03-17T12:02:16;4.83;;;4.33;;
37451;SDS011;23314;51.114;6.900;2024-03-17T12:04:44;6.50;;;4.33;;
37451;SDS011;23314;51.114;6.900;2024-03-17T12:07:13;5.40;;;3.70;;
37451;SDS011;23314;51.114;6.900;2024-03-17T12:09:41;5.17;;;4.07;;
37451;SDS011;23314;51.114;6.900;2024-03-17T12:12:16;5.70;;;4.30;;
37451;SDS011;23314;51.114;6.900;2024-03-17T12:14:45;4.17;;;3.77;;
37451;SDS011;23314;51.114;6.900;2024-03-17T12:17:12;5.23;;;4.30;;
37451;SDS011;23314;51.114;6.900;2024-03-17T12:19:44;7.13;;;4.03;;
37451;SDS011;23314;51.114;6.900;2024-03-17T12:22:13;6.77;;;3.97;;
37451;SDS011;23314;51.114;6.900;2024-03-17T12:24:43;4.13;;;3.63;;
37451;SDS011;23314;51.114;6.900;2024-03-17T12:27:10;5.77;;;3.90;;
37451;SDS011;23314;51.114;6.900;2024-03-17T12:29:42;4.03;;;3.40;;
37451;SDS011;23314;51.114;6.900;2024-03-17T12:34:38;4.27;;;3.43;;
37451;SDS011;23314;51.114;6.900;2024-03-17T12:37:05;5.23;;;3.40;;
37451;SDS011;23314;51.114;6.900;2024-03-17T12:39:34;4.77;;;3.37;;
37451;SDS011;23314;51.114;6.900;2024-03-17T12:42:06;6.03;;;3.30;;
37451;SDS011;23314;51.114;6.900;2024-03-17T12:44:35;6.97;;;3.73;;
37451;SDS011;23314;51.114;6.900;2024-03-17T12:47:08;8.83;;;3.53;;
37451;SDS011;23314;51.114;6.900;2024-03-17T12:49:45;5.23;;;3.33;;
37451;SDS011;23314;51.114;6.900;2024-03-17T12:52:16;3.67;;;3.10;;
37451;SDS011;23314;51.114;6.900;2024-03-17T12:54:44;4.83;;;3.30;;
37451;SDS011;23314;51.114;6.900;2024-03-17T12:57:15;3.57;;;3.20;;
37451;SDS011;23314;51.114;6.900;2024-03-17T12:59:59;3.00;;;2.70;;
37451;SDS011;23314;51.114;6.900;2024-03-17T13:02:43;4.77;;;2.80;;
37451;SDS011;23314;51.114;6.900;2024-03-17T13:05:16;5.73;;;3.57;;
37451;SDS011;23314;51.114;6.900;2024-03-17T13:07:43;6.03;;;3.73;;
37451;SDS011;23314;51.114;6.900;2024-03-17T13:10:11;4.97;;;3.50;;
37451;SDS011;23314;51.114;6.900;2024-03-17T13:12:41;4.23;;;3.33;;
37451;SDS011;23314;51.114;6.900;2024-03-17T13:15:08;4.20;;;3.10;;
37451;SDS011;23314;51.114;6.900;2024-03-17T13:17:36;4.07;;;3.35;;
37451;SDS011;23314;51.114;6.900;2024-03-17T13:20:02;5.23;;;3.50;;
37451;SDS011;23314;51.114;6.900;2024-03-17T13:22:29;5.93;;;3.40;;
37451;SDS011;23314;51.114;6.900;2024-03-17T13:24:54;4.73;;;3.43;;
37451;SDS011;23314;51.114;6.900;2024-03-17T13:27:19;4.20;;;3.20;;
37451;SDS011;23314;51.114;6.900;2024-03-17T13:29:48;5.93;;;3.75;;
37451;SDS011;23314;51.114;6.900;2024-03-17T13:32:14;5.30;;;2.80;;
37451;SDS011;23314;51.114;6.900;2024-03-17T13:34:40;3.97;;;2.70;;
37451;SDS011;23314;51.114;6.900;2024-03-17T13:37:06;5.13;;;3.30;;
37451;SDS011;23314;51.114;6.900;2024-03-17T13:39:32;5.73;;;3.20;;
37451;SDS011;23314;51.114;6.900;2024-03-17T13:41:58;3.30;;;3.00;;
37451;SDS011;23314;51.114;6.900;2024-03-17T13:44:31;4.10;;;3.33;;
37451;SDS011;23314;51.114;6.900;2024-03-17T13:46:57;5.87;;;3.00;;
37451;SDS011;23314;51.114;6.900;2024-03-17T13:49:33;6.27;;;3.20;;
37451;SDS011;23314;51.114;6.900;2024-03-17T13:51:58;3.93;;;2.77;;
37451;SDS011;23314;51.114;6.900;2024-03-17T13:54:24;3.33;;;3.03;;
37451;SDS011;23314;51.114;6.900;2024-03-17T13:56:49;4.80;;;3.20;;
37451;SDS011;23314;51.114;6.900;2024-03-17T13:59:15;3.43;;;3.13;;
37451;SDS011;23314;51.114;6.900;2024-03-17T14:01:44;3.50;;;3.10;;
37451;SDS011;23314;51.114;6.900;2024-03-17T14:04:13;3.97;;;3.00;;
37451;SDS011;23314;51.114;6.900;2024-03-17T14:06:40;3.40;;;3.10;;
37451;SDS011;23314;51.114;6.900;2024-03-17T14:09:06;2.97;;;2.60;;
37451;SDS011;23314;51.114;6.900;2024-03-17T14:11:34;3.70;;;3.20;;
37451;SDS011;23314;51.114;6.900;2024-03-17T14:13:59;4.67;;;2.63;;
37451;SDS011;23314;51.114;6.900;2024-03-17T14:16:25;3.13;;;2.60;;
37451;SDS011;23314;51.114;6.900;2024-03-17T14:18:50;3.33;;;2.67;;
37451;SDS011;23314;51.114;6.900;2024-03-17T14:21:15;4.27;;;2.73;;
37451;SDS011;23314;51.114;6.900;2024-03-17T14:23:41;3.33;;;2.60;;
37451;SDS011;23314;51.114;6.900;2024-03-17T14:26:08;4.97;;;2.70;;
37451;SDS011;23314;51.114;6.900;2024-03-17T14:28:34;4.33;;;3.10;;
37451;SDS011;23314;51.114;6.900;2024-03-17T14:30:59;4.90;;;2.60;;
37451;SDS011;23314;51.114;6.900;2024-03-17T14:33:25;3.03;;;2.30;;
37451;SDS011;23314;51.114;6.900;2024-03-17T14:35:59;3.17;;;2.87;;
37451;SDS011;23314;51.114;6.900;2024-03-17T14:38:24;2.30;;;2.20;;
37451;SDS011;23314;51.114;6.900;2024-03-17T14:40:53;3.03;;;2.83;;
37451;SDS011;23314;51.114;6.900;2024-03-17T14:43:21;4.30;;;3.13;;
37451;SDS011;23314;51.114;6.900;2024-03-17T14:45:46;2.60;;;2.30;;
37451;SDS011;23314;51.114;6.900;2024-03-17T14:48:12;5.23;;;3.23;;
37451;SDS011;23314;51.114;6.900;2024-03-17T14:50:40;3.13;;;2.70;;
37451;SDS011;23314;51.114;6.900;2024-03-17T14:53:06;2.83;;;2.50;;
37451;SDS011;23314;51.114;6.900;2024-03-17T14:55:31;3.93;;;2.60;;
37451;SDS011;23314;51.114;6.900;2024-03-17T14:57:57;3.35;;;2.20;;
37451;SDS011;23314;51.114;6.900;2024-03-17T15:00:22;3.43;;;2.50;;
37451;SDS011;23314;51.114;6.900;2024-03-17T15:02:50;2.40;;;2.27;;
37451;SDS011;23314;51.114;6.900;2024-03-17T15:05:16;3.07;;;2.63;;
37451;SDS011;23314;51.114;6.900;2024-03-17T15:07:47;5.30;;;2.53;;
37451;SDS011;23314;51.114;6.900;2024-03-17T15:10:13;3.43;;;2.93;;
37451;SDS011;23314;51.114;6.900;2024-03-17T15:12:40;3.50;;;2.60;;
37451;SDS011;23314;51.114;6.900;2024-03-17T15:15:07;4.97;;;3.17;;